createdAt,value
2017-09-05T00:00:22.661Z,934.72
2017-09-05T00:00:50.617Z,934.68
2017-09-05T00:01:18.671Z,934.72
2017-09-05T00:01:46.676Z,934.69
2017-09-05T00:02:14.905Z,934.67
2017-09-05T00:02:43.063Z,934.73
2017-09-05T00:03:11.224Z,934.71
2017-09-05T00:03:39.278Z,934.73
2017-09-05T00:04:07.428Z,934.71
2017-09-05T00:04:35.442Z,934.75
2017-09-05T00:05:03.545Z,934.73
2017-09-05T00:05:31.470Z,934.71
2017-09-05T00:05:59.659Z,934.75
2017-09-05T00:06:27.779Z,934.76
2017-09-05T00:06:55.641Z,934.75
2017-09-05T00:07:23.871Z,934.76
2017-09-05T00:07:51.952Z,934.77
2017-09-05T00:08:19.990Z,934.78
2017-09-05T00:08:47.993Z,934.79
2017-09-05T00:09:16.124Z,934.77
2017-09-05T00:09:44.135Z,934.8
2017-09-05T00:10:12.044Z,934.79
2017-09-05T00:10:40.074Z,934.8
2017-09-05T00:11:08.196Z,934.78
2017-09-05T00:11:35.944Z,934.81
2017-09-05T00:12:03.967Z,934.78
2017-09-05T00:12:32.068Z,934.79
2017-09-05T00:13:00.107Z,934.8
2017-09-05T00:13:28.246Z,934.77
2017-09-05T00:13:56.401Z,934.8
2017-09-05T00:14:24.430Z,934.79
2017-09-05T00:14:52.559Z,934.78
2017-09-05T00:15:20.628Z,934.78
2017-09-05T00:15:48.551Z,934.82
2017-09-05T00:16:16.586Z,934.78
2017-09-05T00:16:44.631Z,934.82
2017-09-05T00:17:12.449Z,934.81
2017-09-05T00:17:40.601Z,934.84
2017-09-05T00:18:08.754Z,934.8
2017-09-05T00:18:36.897Z,934.79
2017-09-05T00:19:04.843Z,934.82
2017-09-05T00:19:32.989Z,934.83
2017-09-05T00:20:01.028Z,934.8
2017-09-05T00:20:29.082Z,934.79
2017-09-05T00:20:57.096Z,934.77
2017-09-05T00:21:25.142Z,934.8
2017-09-05T00:21:53.028Z,934.79
2017-09-05T00:22:21.353Z,934.84
2017-09-05T00:22:49.550Z,934.79
2017-09-05T00:23:17.604Z,934.82
2017-09-05T00:23:45.747Z,934.79
2017-09-05T00:24:13.850Z,934.81
2017-09-05T00:24:41.881Z,934.78
2017-09-05T00:25:09.932Z,934.79
2017-09-05T00:25:38.100Z,934.77
2017-09-05T00:26:06.128Z,934.83
2017-09-05T00:26:34.302Z,934.79
2017-09-05T00:27:02.342Z,934.81
2017-09-05T00:27:30.450Z,934.82
2017-09-05T00:27:58.273Z,934.78
2017-09-05T00:28:26.205Z,934.76
2017-09-05T00:28:54.357Z,934.73
2017-09-05T00:29:22.207Z,934.77
2017-09-05T00:29:50.313Z,934.77
2017-09-05T00:30:18.396Z,934.74
2017-09-05T00:30:46.306Z,934.74
2017-09-05T00:31:14.313Z,934.76
2017-09-05T00:31:42.476Z,934.79
2017-09-05T00:32:10.333Z,934.76
2017-09-05T00:32:38.539Z,934.75
2017-09-05T00:33:06.566Z,934.75
2017-09-05T00:33:34.615Z,934.79
2017-09-05T00:34:02.714Z,934.76
2017-09-05T00:34:30.587Z,934.75
2017-09-05T00:34:58.624Z,934.78
2017-09-05T00:35:26.646Z,934.81
2017-09-05T00:35:54.787Z,934.76
2017-09-05T00:36:22.805Z,934.78
2017-09-05T00:36:50.932Z,934.79
2017-09-05T00:37:18.970Z,934.79
2017-09-05T00:37:46.897Z,934.82
2017-09-05T00:38:14.841Z,934.8
2017-09-05T00:38:42.873Z,934.84
2017-09-05T00:39:10.999Z,934.85
2017-09-05T00:39:39.030Z,934.82
2017-09-05T00:40:06.968Z,934.85
2017-09-05T00:40:35.129Z,934.85
2017-09-05T00:41:03.263Z,934.82
2017-09-05T00:41:31.292Z,934.82
2017-09-05T00:41:59.232Z,934.83
2017-09-05T00:42:27.394Z,934.8
2017-09-05T00:42:55.387Z,934.82
2017-09-05T00:43:23.313Z,934.79
2017-09-05T00:43:51.449Z,934.8
2017-09-05T00:44:19.636Z,934.82
2017-09-05T00:44:47.684Z,934.81
2017-09-05T00:45:15.690Z,934.81
2017-09-05T00:45:43.718Z,934.8
2017-09-05T00:46:11.751Z,934.81
2017-09-05T00:46:39.939Z,934.78
2017-09-05T00:47:08.101Z,934.82
2017-09-05T00:47:36.196Z,934.79
2017-09-05T00:48:04.155Z,934.83
2017-09-05T00:48:32.112Z,934.83
2017-09-05T00:49:00.288Z,934.82
2017-09-05T00:49:28.291Z,934.83
2017-09-05T00:49:56.050Z,934.82
2017-09-05T00:50:24.176Z,934.79
2017-09-05T00:50:52.316Z,934.79
2017-09-05T00:51:20.258Z,934.8
2017-09-05T00:51:48.320Z,934.82
2017-09-05T00:52:16.406Z,934.81
2017-09-05T00:52:44.530Z,934.8
2017-09-05T00:53:12.611Z,934.8
2017-09-05T00:53:40.517Z,934.8
2017-09-05T00:54:08.612Z,934.81
2017-09-05T00:54:36.654Z,934.79
2017-09-05T00:55:04.783Z,934.82
2017-09-05T00:55:32.910Z,934.81
2017-09-05T00:56:01.022Z,934.79
2017-09-05T00:56:29.051Z,934.8
2017-09-05T00:56:57.167Z,934.8
2017-09-05T00:57:25.180Z,934.81
2017-09-05T00:57:53.238Z,934.79
2017-09-05T00:58:21.260Z,934.82
2017-09-05T00:58:49.282Z,934.82
2017-09-05T00:59:17.412Z,934.82
2017-09-05T00:59:45.458Z,934.81
2017-09-05T01:00:13.475Z,934.84
2017-09-05T01:00:41.475Z,934.84
2017-09-05T01:01:09.498Z,934.86
2017-09-05T01:01:37.653Z,934.82
2017-09-05T01:02:05.672Z,934.86
2017-09-05T01:02:33.827Z,934.86
2017-09-05T01:03:01.874Z,934.87
2017-09-05T01:03:29.922Z,934.85
2017-09-05T01:03:57.914Z,934.82
2017-09-05T01:04:26.015Z,934.85
2017-09-05T01:04:53.992Z,934.85
2017-09-05T01:05:21.932Z,934.84
2017-09-05T01:05:49.978Z,934.89
2017-09-05T01:06:18.039Z,934.86
2017-09-05T01:06:46.091Z,934.88
2017-09-05T01:07:14.146Z,934.89
2017-09-05T01:07:42.288Z,934.89
2017-09-05T01:08:10.404Z,934.9
2017-09-05T01:08:38.535Z,934.88
2017-09-05T01:09:06.711Z,934.87
2017-09-05T01:09:34.846Z,934.92
2017-09-05T01:10:02.947Z,934.89
2017-09-05T01:10:30.898Z,934.9
2017-09-05T01:10:58.939Z,934.89
2017-09-05T01:11:26.999Z,934.92
2017-09-05T01:11:55.081Z,934.9
2017-09-05T01:12:23.030Z,934.88
2017-09-05T01:12:51.210Z,934.92
2017-09-05T01:13:19.270Z,934.92
2017-09-05T01:13:47.194Z,934.9
2017-09-05T01:14:15.254Z,934.9
2017-09-05T01:14:43.378Z,934.92
2017-09-05T01:15:11.440Z,934.89
2017-09-05T01:15:39.582Z,934.88
2017-09-05T01:16:07.736Z,934.88
2017-09-05T01:16:35.734Z,934.9
2017-09-05T01:17:03.772Z,934.93
2017-09-05T01:17:31.885Z,934.93
2017-09-05T01:18:00.043Z,934.9
2017-09-05T01:18:28.159Z,934.88
2017-09-05T01:18:56.291Z,934.93
2017-09-05T01:19:24.224Z,934.93
2017-09-05T01:19:52.024Z,934.91
2017-09-05T01:20:20.137Z,934.93
2017-09-05T01:20:48.181Z,934.91
2017-09-05T01:21:16.112Z,934.92
2017-09-05T01:21:44.144Z,934.95
2017-09-05T01:22:12.186Z,934.92
2017-09-05T01:22:40.207Z,934.92
2017-09-05T01:23:08.215Z,934.96
2017-09-05T01:23:36.313Z,934.92
2017-09-05T01:24:04.466Z,934.96
2017-09-05T01:24:32.525Z,934.94
2017-09-05T01:25:00.749Z,934.95
2017-09-05T01:25:28.784Z,934.98
2017-09-05T01:25:56.908Z,934.94
2017-09-05T01:26:25.020Z,934.98
2017-09-05T01:26:53.103Z,934.98
2017-09-05T01:27:21.238Z,934.95
2017-09-05T01:27:49.342Z,934.96
2017-09-05T01:28:17.390Z,934.94
2017-09-05T01:28:45.525Z,934.93
2017-09-05T01:29:13.559Z,934.96
2017-09-05T01:29:41.482Z,934.94
2017-09-05T01:30:09.448Z,934.9
2017-09-05T01:30:37.489Z,934.92
2017-09-05T01:31:05.400Z,934.88
2017-09-05T01:31:33.369Z,934.91
2017-09-05T01:32:01.404Z,934.91
2017-09-05T01:32:29.222Z,934.92
2017-09-05T01:32:57.255Z,934.91
2017-09-05T01:33:25.300Z,934.89
2017-09-05T01:33:53.274Z,934.91
2017-09-05T01:34:21.425Z,934.86
2017-09-05T01:34:49.589Z,934.88
2017-09-05T01:35:17.699Z,934.91
2017-09-05T01:35:45.883Z,934.9
2017-09-05T01:36:13.756Z,934.87
2017-09-05T01:36:41.791Z,934.86
2017-09-05T01:37:09.914Z,934.86
2017-09-05T01:37:37.925Z,934.9
2017-09-05T01:38:05.938Z,934.88
2017-09-05T01:38:33.771Z,934.86
2017-09-05T01:39:01.900Z,934.8
2017-09-05T01:39:30.077Z,934.81
2017-09-05T01:39:58.213Z,934.81
2017-09-05T01:40:26.139Z,934.82
2017-09-05T01:40:54.213Z,934.84
2017-09-05T01:41:22.288Z,934.8
2017-09-05T01:41:50.278Z,934.78
2017-09-05T01:42:18.184Z,934.75
2017-09-05T01:42:46.342Z,934.81
2017-09-05T01:43:14.599Z,934.79
2017-09-05T01:43:42.643Z,934.76
2017-09-05T01:44:10.548Z,934.78
2017-09-05T01:44:38.465Z,934.75
2017-09-05T01:45:06.443Z,934.77
2017-09-05T01:45:34.408Z,934.79
2017-09-05T01:46:02.437Z,934.76
2017-09-05T01:46:30.576Z,934.77
2017-09-05T01:46:58.711Z,934.75
2017-09-05T01:47:26.768Z,934.76
2017-09-05T01:47:54.881Z,934.74
2017-09-05T01:48:22.996Z,934.77
2017-09-05T01:48:51.149Z,934.78
2017-09-05T01:49:19.275Z,934.8
2017-09-05T01:49:47.206Z,934.77
2017-09-05T01:50:15.218Z,934.74
2017-09-05T01:50:43.256Z,934.76
2017-09-05T01:51:11.291Z,934.73
2017-09-05T01:51:39.457Z,934.74
2017-09-05T01:52:07.639Z,934.71
2017-09-05T01:52:35.813Z,934.72
2017-09-05T01:53:03.985Z,934.71
2017-09-05T01:53:32.100Z,934.71
2017-09-05T01:54:00.025Z,934.73
2017-09-05T01:54:28.155Z,934.75
2017-09-05T01:54:56.189Z,934.73
2017-09-05T01:55:24.188Z,934.73
2017-09-05T01:55:52.285Z,934.74
2017-09-05T01:56:20.416Z,934.74
2017-09-05T01:56:48.614Z,934.77
2017-09-05T01:57:16.776Z,934.77
2017-09-05T01:57:44.914Z,934.75
2017-09-05T01:58:13.156Z,934.76
2017-09-05T01:58:41.165Z,934.75
2017-09-05T01:59:08.980Z,934.75
2017-09-05T01:59:37.026Z,934.75
2017-09-05T02:00:04.834Z,934.74
2017-09-05T02:00:32.867Z,934.72
2017-09-05T02:01:00.915Z,934.78
2017-09-05T02:01:29.034Z,934.74
2017-09-05T02:01:57.052Z,934.75
2017-09-05T02:02:25.085Z,934.76
2017-09-05T02:02:53.253Z,934.74
2017-09-05T02:03:21.425Z,934.75
2017-09-05T02:03:49.420Z,934.73
2017-09-05T02:04:17.609Z,934.76
2017-09-05T02:04:45.685Z,934.77
2017-09-05T02:05:13.636Z,934.74
2017-09-05T02:05:41.579Z,934.76
2017-09-05T02:06:09.715Z,934.74
2017-09-05T02:06:37.735Z,934.75
2017-09-05T02:07:05.647Z,934.75
2017-09-05T02:07:33.694Z,934.72
2017-09-05T02:08:01.834Z,934.75
2017-09-05T02:08:29.926Z,934.76
2017-09-05T02:08:58.092Z,934.73
2017-09-05T02:09:26.109Z,934.74
2017-09-05T02:09:54.128Z,934.74
2017-09-05T02:10:22.151Z,934.75
2017-09-05T02:10:50.309Z,934.73
2017-09-05T02:11:18.339Z,934.75
2017-09-05T02:11:46.524Z,934.74
2017-09-05T02:12:14.664Z,934.74
2017-09-05T02:12:42.844Z,934.73
2017-09-05T02:13:10.877Z,934.72
2017-09-05T02:13:39.006Z,934.78
2017-09-05T02:14:07.157Z,934.74
2017-09-05T02:14:35.285Z,934.77
2017-09-05T02:15:03.343Z,934.71
2017-09-05T02:15:31.368Z,934.74
2017-09-05T02:15:59.530Z,934.73
2017-09-05T02:16:27.369Z,934.73
2017-09-05T02:16:55.292Z,934.74
2017-09-05T02:17:23.332Z,934.76
2017-09-05T02:17:51.485Z,934.75
2017-09-05T02:18:19.631Z,934.73
2017-09-05T02:18:47.755Z,934.73
2017-09-05T02:19:15.846Z,934.76
2017-09-05T02:19:43.995Z,934.74
2017-09-05T02:20:12.065Z,934.74
2017-09-05T02:20:40.139Z,934.72
2017-09-05T02:21:08.304Z,934.74
2017-09-05T02:21:36.366Z,934.74
2017-09-05T02:22:04.323Z,934.77
2017-09-05T02:22:32.476Z,934.73
2017-09-05T02:23:00.409Z,934.73
2017-09-05T02:23:28.482Z,934.74
2017-09-05T02:23:56.623Z,934.71
2017-09-05T02:24:24.628Z,934.75
2017-09-05T02:24:52.766Z,934.74
2017-09-05T02:25:20.806Z,934.75
2017-09-05T02:25:48.704Z,934.77
2017-09-05T02:26:16.852Z,934.74
2017-09-05T02:26:44.876Z,934.77
2017-09-05T02:27:12.903Z,934.75
2017-09-05T02:27:41.045Z,934.76
2017-09-05T02:28:09.073Z,934.73
2017-09-05T02:28:37.295Z,934.76
2017-09-05T02:29:05.381Z,934.76
2017-09-05T02:29:33.417Z,934.8
2017-09-05T02:30:01.437Z,934.82
2017-09-05T02:30:29.436Z,934.78
2017-09-05T02:30:57.449Z,934.79
2017-09-05T02:31:25.525Z,934.78
2017-09-05T02:31:53.666Z,934.77
2017-09-05T02:32:21.715Z,934.79
2017-09-05T02:32:49.843Z,934.79
2017-09-05T02:33:17.691Z,934.81
2017-09-05T02:33:45.916Z,934.82
2017-09-05T02:34:14.033Z,934.83
2017-09-05T02:34:42.185Z,934.83
2017-09-05T02:35:10.365Z,934.83
2017-09-05T02:35:38.376Z,934.82
2017-09-05T02:36:06.333Z,934.84
2017-09-05T02:36:34.454Z,934.84
2017-09-05T02:37:02.557Z,934.81
2017-09-05T02:37:30.658Z,934.84
2017-09-05T02:37:58.797Z,934.83
2017-09-05T02:38:26.911Z,934.83
2017-09-05T02:38:55.166Z,934.79
2017-09-05T02:39:23.197Z,934.8
2017-09-05T02:39:51.208Z,934.81
2017-09-05T02:40:19.211Z,934.83
2017-09-05T02:40:47.379Z,934.84
2017-09-05T02:41:15.527Z,934.77
2017-09-05T02:41:43.367Z,934.79
2017-09-05T02:42:11.417Z,934.85
2017-09-05T02:42:39.472Z,934.8
2017-09-05T02:43:07.431Z,934.81
2017-09-05T02:43:35.577Z,934.78
2017-09-05T02:44:03.718Z,934.8
2017-09-05T02:44:31.759Z,934.81
2017-09-05T02:44:59.782Z,934.81
2017-09-05T02:45:27.826Z,934.79
2017-09-05T02:45:55.862Z,934.8
2017-09-05T02:46:24.014Z,934.81
2017-09-05T02:46:52.133Z,934.8
2017-09-05T02:47:20.168Z,934.8
2017-09-05T02:47:48.244Z,934.82
2017-09-05T02:48:16.392Z,934.8
2017-09-05T02:48:44.502Z,934.8
2017-09-05T02:49:12.541Z,934.8
2017-09-05T02:49:40.669Z,934.8
2017-09-05T02:50:08.809Z,934.79
2017-09-05T02:50:36.975Z,934.79
2017-09-05T02:51:05.016Z,934.76
2017-09-05T02:51:33.166Z,934.79
2017-09-05T02:52:01.214Z,934.8
2017-09-05T02:52:29.300Z,934.77
2017-09-05T02:52:57.361Z,934.77
2017-09-05T02:53:25.204Z,934.74
2017-09-05T02:53:53.428Z,934.76
2017-09-05T02:54:21.477Z,934.77
2017-09-05T02:54:49.522Z,934.75
2017-09-05T02:55:17.672Z,934.77
2017-09-05T02:55:45.799Z,934.77
2017-09-05T02:56:13.819Z,934.76
2017-09-05T02:56:41.894Z,934.75
2017-09-05T02:57:09.929Z,934.74
2017-09-05T02:57:37.992Z,934.77
2017-09-05T02:58:06.197Z,934.82
2017-09-05T02:58:34.069Z,934.77
2017-09-05T02:59:02.216Z,934.77
2017-09-05T02:59:30.332Z,934.75
2017-09-05T02:59:58.336Z,934.75
2017-09-05T03:00:26.251Z,934.72
2017-09-05T03:00:54.400Z,934.72
2017-09-05T03:01:22.443Z,934.71
2017-09-05T03:01:50.380Z,934.69
2017-09-05T03:02:18.543Z,934.7
2017-09-05T03:02:46.471Z,934.7
2017-09-05T03:03:14.545Z,934.69
2017-09-05T03:03:42.514Z,934.65
2017-09-05T03:04:10.739Z,934.66
2017-09-05T03:04:38.896Z,934.66
2017-09-05T03:05:06.906Z,934.66
2017-09-05T03:05:35.015Z,934.68
2017-09-05T03:06:02.982Z,934.63
2017-09-05T03:06:30.927Z,934.68
2017-09-05T03:06:59.062Z,934.67
2017-09-05T03:07:27.030Z,934.67
2017-09-05T03:07:55.165Z,934.67
2017-09-05T03:08:23.114Z,934.63
2017-09-05T03:08:51.391Z,934.67
2017-09-05T03:09:19.533Z,934.69
2017-09-05T03:09:47.497Z,934.64
2017-09-05T03:10:15.637Z,934.67
2017-09-05T03:10:43.469Z,934.69
2017-09-05T03:11:11.558Z,934.67
2017-09-05T03:11:39.584Z,934.65
2017-09-05T03:12:07.565Z,934.65
2017-09-05T03:12:35.700Z,934.64
2017-09-05T03:13:03.691Z,934.65
2017-09-05T03:13:31.674Z,934.65
2017-09-05T03:13:59.817Z,934.65
2017-09-05T03:14:27.797Z,934.63
2017-09-05T03:14:56.000Z,934.63
2017-09-05T03:15:23.975Z,934.64
2017-09-05T03:15:51.993Z,934.64
2017-09-05T03:16:20.058Z,934.63
2017-09-05T03:16:47.918Z,934.64
2017-09-05T03:17:15.740Z,934.62
2017-09-05T03:17:43.604Z,934.62
2017-09-05T03:18:11.643Z,934.6
2017-09-05T03:18:39.826Z,934.6
2017-09-05T03:19:08.009Z,934.59
2017-09-05T03:19:36.085Z,934.58
2017-09-05T03:20:04.168Z,934.59
2017-09-05T03:20:32.302Z,934.59
2017-09-05T03:21:00.410Z,934.57
2017-09-05T03:21:28.589Z,934.6
2017-09-05T03:21:56.553Z,934.55
2017-09-05T03:22:24.520Z,934.56
2017-09-05T03:22:52.710Z,934.56
2017-09-05T03:23:20.808Z,934.57
2017-09-05T03:23:48.978Z,934.57
2017-09-05T03:24:17.072Z,934.56
2017-09-05T03:24:45.203Z,934.56
2017-09-05T03:25:13.204Z,934.54
2017-09-05T03:25:41.039Z,934.55
2017-09-05T03:26:09.037Z,934.55
2017-09-05T03:26:36.972Z,934.51
2017-09-05T03:27:04.919Z,934.53
2017-09-05T03:27:33.038Z,934.56
2017-09-05T03:28:01.150Z,934.52
2017-09-05T03:28:29.285Z,934.54
2017-09-05T03:28:57.338Z,934.53
2017-09-05T03:29:25.374Z,934.5
2017-09-05T03:29:53.421Z,934.49
2017-09-05T03:30:21.460Z,934.52
2017-09-05T03:30:49.344Z,934.52
2017-09-05T03:31:17.204Z,934.48
2017-09-05T03:31:45.338Z,934.49
2017-09-05T03:32:13.350Z,934.46
2017-09-05T03:32:41.304Z,934.47
2017-09-05T03:33:09.407Z,934.45
2017-09-05T03:33:37.382Z,934.44
2017-09-05T03:34:05.517Z,934.44
2017-09-05T03:34:33.471Z,934.43
2017-09-05T03:35:01.541Z,934.47
2017-09-05T03:35:29.583Z,934.49
2017-09-05T03:35:57.625Z,934.45
2017-09-05T03:36:25.767Z,934.44
2017-09-05T03:36:53.719Z,934.44
2017-09-05T03:37:21.671Z,934.46
2017-09-05T03:37:49.576Z,934.45
2017-09-05T03:38:17.640Z,934.45
2017-09-05T03:38:45.683Z,934.42
2017-09-05T03:39:13.723Z,934.45
2017-09-05T03:39:41.680Z,934.42
2017-09-05T03:40:09.683Z,934.43
2017-09-05T03:40:37.759Z,934.41
2017-09-05T03:41:05.793Z,934.38
2017-09-05T03:41:33.709Z,934.4
2017-09-05T03:42:01.750Z,934.41
2017-09-05T03:42:29.606Z,934.4
2017-09-05T03:42:57.640Z,934.39
2017-09-05T03:43:25.718Z,934.42
2017-09-05T03:43:53.858Z,934.41
2017-09-05T03:44:22.035Z,934.4
2017-09-05T03:44:50.068Z,934.38
2017-09-05T03:45:18.130Z,934.39
2017-09-05T03:45:46.148Z,934.36
2017-09-05T03:46:14.211Z,934.37
2017-09-05T03:46:42.409Z,934.37
2017-09-05T03:47:10.375Z,934.41
2017-09-05T03:47:38.501Z,934.37
2017-09-05T03:48:06.638Z,934.38
2017-09-05T03:48:34.657Z,934.38
2017-09-05T03:49:02.710Z,934.32
2017-09-05T03:49:30.919Z,934.35
2017-09-05T03:49:58.792Z,934.32
2017-09-05T03:50:26.632Z,934.35
2017-09-05T03:50:54.628Z,934.34
2017-09-05T03:51:22.746Z,934.32
2017-09-05T03:51:50.917Z,934.31
2017-09-05T03:52:19.009Z,934.3
2017-09-05T03:52:47.048Z,934.28
2017-09-05T03:53:14.996Z,934.28
2017-09-05T03:53:42.971Z,934.27
2017-09-05T03:54:11.118Z,934.27
2017-09-05T03:54:39.388Z,934.25
2017-09-05T03:55:07.533Z,934.25
2017-09-05T03:55:35.462Z,934.23
2017-09-05T03:56:03.462Z,934.2
2017-09-05T03:56:31.542Z,934.26
2017-09-05T03:56:59.666Z,934.25
2017-09-05T03:57:27.705Z,934.23
2017-09-05T03:57:55.716Z,934.23
2017-09-05T03:58:23.845Z,934.21
2017-09-05T03:58:51.939Z,934.23
2017-09-05T03:59:20.150Z,934.26
2017-09-05T03:59:48.351Z,934.25
2017-09-05T04:00:16.510Z,934.23
2017-09-05T04:00:44.478Z,934.23
2017-09-05T04:01:12.479Z,934.23
2017-09-05T04:01:40.549Z,934.23
2017-09-05T04:02:08.623Z,934.26
2017-09-05T04:02:36.670Z,934.27
2017-09-05T04:03:04.699Z,934.25
2017-09-05T04:03:32.708Z,934.21
2017-09-05T04:04:00.633Z,934.21
2017-09-05T04:04:28.884Z,934.18
2017-09-05T04:04:56.936Z,934.19
2017-09-05T04:05:24.978Z,934.22
2017-09-05T04:05:52.975Z,934.18
2017-09-05T04:06:21.046Z,934.2
2017-09-05T04:06:49.135Z,934.16
2017-09-05T04:07:17.123Z,934.18
2017-09-05T04:07:45.254Z,934.19
2017-09-05T04:08:13.368Z,934.16
2017-09-05T04:08:41.516Z,934.17
2017-09-05T04:09:09.555Z,934.16
2017-09-05T04:09:37.779Z,934.16
2017-09-05T04:10:05.878Z,934.17
2017-09-05T04:10:33.828Z,934.18
2017-09-05T04:11:01.818Z,934.15
2017-09-05T04:11:29.928Z,934.17
2017-09-05T04:11:58.012Z,934.14
2017-09-05T04:12:26.149Z,934.15
2017-09-05T04:12:54.152Z,934.14
2017-09-05T04:13:22.205Z,934.12
2017-09-05T04:13:50.241Z,934.15
2017-09-05T04:14:18.257Z,934.13
2017-09-05T04:14:46.379Z,934.12
2017-09-05T04:15:14.528Z,934.14
2017-09-05T04:15:42.476Z,934.11
2017-09-05T04:16:10.636Z,934.08
2017-09-05T04:16:38.553Z,934.09
2017-09-05T04:17:06.722Z,934.08
2017-09-05T04:17:34.802Z,934.11
2017-09-05T04:18:02.896Z,934.08
2017-09-05T04:18:30.846Z,934.07
2017-09-05T04:18:59.000Z,934.03
2017-09-05T04:19:27.015Z,934.04
2017-09-05T04:19:55.148Z,934.07
2017-09-05T04:20:23.310Z,934.03
2017-09-05T04:20:51.361Z,934.03
2017-09-05T04:21:19.372Z,933.99
2017-09-05T04:21:47.403Z,933.95
2017-09-05T04:22:15.319Z,933.98
2017-09-05T04:22:43.254Z,933.96
2017-09-05T04:23:11.296Z,933.96
2017-09-05T04:23:39.436Z,933.94
2017-09-05T04:24:07.459Z,933.95
2017-09-05T04:24:35.384Z,933.94
2017-09-05T04:25:03.330Z,933.94
2017-09-05T04:25:31.347Z,933.92
2017-09-05T04:25:59.351Z,933.91
2017-09-05T04:26:27.364Z,933.92
2017-09-05T04:26:55.420Z,933.97
2017-09-05T04:27:23.474Z,933.97
2017-09-05T04:27:51.545Z,933.95
2017-09-05T04:28:19.621Z,933.92
2017-09-05T04:28:47.627Z,933.94
2017-09-05T04:29:15.624Z,933.9
2017-09-05T04:29:43.780Z,933.94
2017-09-05T04:30:11.848Z,933.93
2017-09-05T04:30:39.938Z,933.94
2017-09-05T04:31:08.077Z,933.91
2017-09-05T04:31:36.071Z,933.92
2017-09-05T04:32:04.114Z,933.9
2017-09-05T04:32:32.056Z,933.91
2017-09-05T04:32:59.968Z,933.87
2017-09-05T04:33:28.096Z,933.88
2017-09-05T04:33:55.923Z,933.9
2017-09-05T04:34:24.074Z,933.88
2017-09-05T04:34:52.071Z,933.85
2017-09-05T04:35:20.211Z,933.89
2017-09-05T04:35:48.222Z,933.88
2017-09-05T04:36:16.257Z,933.9
2017-09-05T04:36:44.331Z,933.89
2017-09-05T04:37:12.215Z,933.89
2017-09-05T04:37:40.314Z,933.95
2017-09-05T04:38:08.427Z,933.91
2017-09-05T04:38:36.339Z,933.93
2017-09-05T04:39:04.457Z,933.9
2017-09-05T04:39:32.479Z,933.9
2017-09-05T04:40:00.731Z,933.89
2017-09-05T04:40:28.889Z,933.9
2017-09-05T04:40:56.837Z,933.87
2017-09-05T04:41:24.982Z,933.9
2017-09-05T04:41:53.054Z,933.94
2017-09-05T04:42:21.092Z,933.91
2017-09-05T04:42:49.273Z,933.94
2017-09-05T04:43:17.329Z,933.9
2017-09-05T04:43:45.374Z,933.93
2017-09-05T04:44:13.423Z,933.91
2017-09-05T04:44:41.514Z,933.93
2017-09-05T04:45:09.522Z,933.91
2017-09-05T04:45:37.460Z,933.91
2017-09-05T04:46:05.511Z,933.91
2017-09-05T04:46:33.598Z,933.91
2017-09-05T04:47:01.775Z,933.92
2017-09-05T04:47:29.793Z,933.95
2017-09-05T04:47:57.966Z,933.91
2017-09-05T04:48:25.992Z,933.91
2017-09-05T04:48:54.144Z,933.91
2017-09-05T04:49:22.168Z,933.9
2017-09-05T04:49:50.203Z,933.91
2017-09-05T04:50:18.381Z,933.89
2017-09-05T04:50:46.532Z,933.87
2017-09-05T04:51:14.583Z,933.87
2017-09-05T04:51:42.517Z,933.85
2017-09-05T04:52:10.487Z,933.88
2017-09-05T04:52:38.513Z,933.88
2017-09-05T04:53:06.674Z,933.88
2017-09-05T04:53:34.795Z,933.87
2017-09-05T04:54:02.947Z,933.84
2017-09-05T04:54:31.063Z,933.87
2017-09-05T04:54:59.202Z,933.86
2017-09-05T04:55:27.366Z,933.84
2017-09-05T04:55:55.296Z,933.86
2017-09-05T04:56:23.334Z,933.85
2017-09-05T04:56:51.444Z,933.85
2017-09-05T04:57:19.361Z,933.82
2017-09-05T04:57:47.418Z,933.83
2017-09-05T04:58:15.425Z,933.82
2017-09-05T04:58:43.344Z,933.82
2017-09-05T04:59:11.280Z,933.81
2017-09-05T04:59:39.313Z,933.81
2017-09-05T05:00:07.448Z,933.83
2017-09-05T05:00:35.274Z,933.83
2017-09-05T05:01:03.587Z,933.83
2017-09-05T05:01:31.614Z,933.82
2017-09-05T05:01:59.667Z,933.83
2017-09-05T05:02:27.709Z,933.83
2017-09-05T05:02:55.703Z,933.8
2017-09-05T05:03:23.744Z,933.8
2017-09-05T05:03:51.658Z,933.79
2017-09-05T05:04:19.519Z,933.8
2017-09-05T05:04:47.660Z,933.8
2017-09-05T05:05:15.765Z,933.79
2017-09-05T05:05:43.840Z,933.8
2017-09-05T05:06:11.985Z,933.77
2017-09-05T05:06:40.012Z,933.78
2017-09-05T05:07:07.966Z,933.77
2017-09-05T05:07:35.986Z,933.79
2017-09-05T05:08:03.916Z,933.79
2017-09-05T05:08:31.934Z,933.76
2017-09-05T05:09:00.099Z,933.8
2017-09-05T05:09:28.143Z,933.79
2017-09-05T05:09:56.149Z,933.75
2017-09-05T05:10:24.263Z,933.77
2017-09-05T05:10:52.386Z,933.78
2017-09-05T05:11:20.391Z,933.75
2017-09-05T05:11:48.448Z,933.71
2017-09-05T05:12:16.599Z,933.72
2017-09-05T05:12:44.760Z,933.71
2017-09-05T05:13:12.897Z,933.68
2017-09-05T05:13:41.030Z,933.7
2017-09-05T05:14:08.726Z,933.72
2017-09-05T05:14:36.744Z,933.7
2017-09-05T05:15:04.989Z,933.7
2017-09-05T05:15:33.126Z,933.74
2017-09-05T05:16:01.184Z,933.68
2017-09-05T05:16:29.184Z,933.69
2017-09-05T05:16:57.359Z,933.68
2017-09-05T05:17:25.265Z,933.65
2017-09-05T05:17:53.208Z,933.67
2017-09-05T05:18:21.290Z,933.64
2017-09-05T05:18:49.334Z,933.65
2017-09-05T05:19:17.483Z,933.65
2017-09-05T05:19:45.523Z,933.63
2017-09-05T05:20:13.781Z,933.61
2017-09-05T05:20:41.833Z,933.63
2017-09-05T05:21:09.858Z,933.58
2017-09-05T05:21:37.928Z,933.62
2017-09-05T05:22:05.945Z,933.6
2017-09-05T05:22:34.068Z,933.59
2017-09-05T05:23:02.222Z,933.58
2017-09-05T05:23:30.237Z,933.55
2017-09-05T05:23:58.166Z,933.57
2017-09-05T05:24:26.277Z,933.57
2017-09-05T05:24:54.329Z,933.54
2017-09-05T05:25:22.520Z,933.57
2017-09-05T05:25:50.625Z,933.54
2017-09-05T05:26:18.663Z,933.53
2017-09-05T05:26:46.613Z,933.55
2017-09-05T05:27:14.648Z,933.57
2017-09-05T05:27:42.663Z,933.55
2017-09-05T05:28:10.598Z,933.53
2017-09-05T05:28:38.640Z,933.51
2017-09-05T05:29:06.754Z,933.52
2017-09-05T05:29:34.870Z,933.53
2017-09-05T05:30:02.899Z,933.5
2017-09-05T05:30:30.999Z,933.49
2017-09-05T05:30:59.085Z,933.48
2017-09-05T05:31:27.213Z,933.48
2017-09-05T05:31:55.298Z,933.45
2017-09-05T05:32:23.137Z,933.48
2017-09-05T05:32:51.252Z,933.46
2017-09-05T05:33:19.274Z,933.49
2017-09-05T05:33:47.172Z,933.48
2017-09-05T05:34:15.195Z,933.47
2017-09-05T05:34:42.921Z,933.45
2017-09-05T05:35:10.857Z,933.45
2017-09-05T05:35:39.083Z,933.46
2017-09-05T05:36:07.329Z,933.46
2017-09-05T05:36:35.491Z,933.47
2017-09-05T05:37:03.596Z,933.44
2017-09-05T05:37:31.553Z,933.44
2017-09-05T05:37:59.748Z,933.41
2017-09-05T05:38:27.906Z,933.45
2017-09-05T05:38:55.964Z,933.43
2017-09-05T05:39:24.053Z,933.43
2017-09-05T05:39:52.266Z,933.42
2017-09-05T05:40:20.424Z,933.38
2017-09-05T05:40:48.508Z,933.41
2017-09-05T05:41:16.667Z,933.38
2017-09-05T05:41:44.670Z,933.39
2017-09-05T05:42:12.690Z,933.39
2017-09-05T05:42:40.739Z,933.37
2017-09-05T05:43:08.697Z,933.38
2017-09-05T05:43:36.814Z,933.36
2017-09-05T05:44:04.896Z,933.36
2017-09-05T05:44:32.994Z,933.36
2017-09-05T05:45:01.005Z,933.35
2017-09-05T05:45:29.235Z,933.37
2017-09-05T05:45:57.383Z,933.34
2017-09-05T05:46:25.299Z,933.33
2017-09-05T05:46:53.337Z,933.34
2017-09-05T05:47:21.401Z,933.32
2017-09-05T05:47:49.372Z,933.33
2017-09-05T05:48:17.437Z,933.33
2017-09-05T05:48:45.484Z,933.31
2017-09-05T05:49:13.698Z,933.3
2017-09-05T05:49:41.856Z,933.26
2017-09-05T05:50:09.987Z,933.26
2017-09-05T05:50:38.114Z,933.28
2017-09-05T05:51:06.248Z,933.25